sensor_id;sensor_type;location;lat;lon;timestamp;P1;durP1;ratioP1;P2;durP2;ratioP2
16862;SDS011;52193;48.216;-1.698;2023-03-25T00:02:04;4.75;;;2.90;;
16862;SDS011;52193;48.216;-1.698;2023-03-25T00:04:32;4.20;;;2.80;;
16862;SDS011;52193;48.216;-1.698;2023-03-25T00:06:59;5.50;;;3.50;;
16862;SDS011;52193;48.216;-1.698;2023-03-25T00:09:28;5.47;;;3.03;;
16862;SDS011;52193;48.216;-1.698;2023-03-25T00:11:55;6.38;;;3.50;;
16862;SDS011;52193;48.216;-1.698;2023-03-25T00:14:22;5.60;;;3.10;;
16862;SDS011;52193;48.216;-1.698;2023-03-25T00:16:50;6.90;;;3.50;;
16862;SDS011;52193;48.216;-1.698;2023-03-25T00:19:17;6.50;;;3.58;;
16862;SDS011;52193;48.216;-1.698;2023-03-25T00:21:45;5.85;;;3.55;;
16862;SDS011;52193;48.216;-1.698;2023-03-25T00:24:14;6.07;;;3.55;;
16862;SDS011;52193;48.216;-1.698;2023-03-25T00:26:43;6.97;;;3.90;;
16862;SDS011;52193;48.216;-1.698;2023-03-25T00:29:10;4.53;;;3.03;;
16862;SDS011;52193;48.216;-1.698;2023-03-25T00:31:37;6.00;;;3.28;;
16862;SDS011;52193;48.216;-1.698;2023-03-25T00:34:04;5.35;;;3.60;;
16862;SDS011;52193;48.216;-1.698;2023-03-25T00:36:32;5.90;;;3.35;;
16862;SDS011;52193;48.216;-1.698;2023-03-25T00:39:01;6.63;;;3.50;;
16862;SDS011;52193;48.216;-1.698;2023-03-25T00:41:29;5.43;;;3.42;;
16862;SDS011;52193;48.216;-1.698;2023-03-25T00:43:59;5.57;;;3.60;;
16862;SDS011;52193;48.216;-1.698;2023-03-25T00:46:27;5.45;;;3.40;;
16862;SDS011;52193;48.216;-1.698;2023-03-25T00:48:56;6.47;;;3.60;;
16862;SDS011;52193;48.216;-1.698;2023-03-25T00:51:24;5.82;;;3.30;;
16862;SDS011;52193;48.216;-1.698;2023-03-25T00:53:52;7.87;;;3.50;;
16862;SDS011;52193;48.216;-1.698;2023-03-25T00:56:21;6.13;;;3.20;;
16862;SDS011;52193;48.216;-1.698;2023-03-25T00:58:48;8.00;;;3.33;;
16862;SDS011;52193;48.216;-1.698;2023-03-25T01:01:18;6.15;;;3.15;;
16862;SDS011;52193;48.216;-1.698;2023-03-25T01:03:47;8.48;;;3.65;;
16862;SDS011;52193;48.216;-1.698;2023-03-25T01:06:21;7.43;;;3.30;;
16862;SDS011;52193;48.216;-1.698;2023-03-25T01:08:52;6.83;;;3.23;;
16862;SDS011;52193;48.216;-1.698;2023-03-25T01:11:21;6.35;;;3.00;;
16862;SDS011;52193;48.216;-1.698;2023-03-25T01:13:50;6.32;;;2.97;;
16862;SDS011;52193;48.216;-1.698;2023-03-25T01:16:18;6.63;;;3.13;;
16862;SDS011;52193;48.216;-1.698;2023-03-25T01:18:45;5.88;;;2.75;;
16862;SDS011;52193;48.216;-1.698;2023-03-25T01:21:12;9.07;;;3.45;;
16862;SDS011;52193;48.216;-1.698;2023-03-25T01:23:40;6.77;;;3.30;;
16862;SDS011;52193;48.216;-1.698;2023-03-25T01:26:07;7.55;;;3.28;;
16862;SDS011;52193;48.216;-1.698;2023-03-25T01:28:34;9.15;;;3.55;;
16862;SDS011;52193;48.216;-1.698;2023-03-25T01:31:01;7.90;;;3.78;;
16862;SDS011;52193;48.216;-1.698;2023-03-25T01:33:31;6.80;;;3.17;;
16862;SDS011;52193;48.216;-1.698;2023-03-25T01:35:59;8.50;;;3.70;;
16862;SDS011;52193;48.216;-1.698;2023-03-25T01:38:26;10.27;;;3.78;;
16862;SDS011;52193;48.216;-1.698;2023-03-25T01:40:54;6.88;;;3.50;;
16862;SDS011;52193;48.216;-1.698;2023-03-25T01:43:22;8.45;;;3.55;;
16862;SDS011;52193;48.216;-1.698;2023-03-25T01:45:49;9.48;;;4.00;;
16862;SDS011;52193;48.216;-1.698;2023-03-25T01:48:17;7.93;;;3.50;;
16862;SDS011;52193;48.216;-1.698;2023-03-25T01:50:51;8.50;;;3.78;;
16862;SDS011;52193;48.216;-1.698;2023-03-25T01:53:22;9.88;;;3.90;;
16862;SDS011;52193;48.216;-1.698;2023-03-25T01:55:51;9.25;;;3.80;;
16862;SDS011;52193;48.216;-1.698;2023-03-25T01:58:19;9.00;;;3.97;;
16862;SDS011;52193;48.216;-1.698;2023-03-25T02:00:47;9.00;;;4.20;;
16862;SDS011;52193;48.216;-1.698;2023-03-25T02:03:16;10.75;;;4.30;;
16862;SDS011;52193;48.216;-1.698;2023-03-25T02:05:47;9.45;;;4.10;;
16862;SDS011;52193;48.216;-1.698;2023-03-25T02:08:21;10.20;;;4.18;;
16862;SDS011;52193;48.216;-1.698;2023-03-25T02:10:49;9.23;;;4.20;;
16862;SDS011;52193;48.216;-1.698;2023-03-25T02:13:16;8.67;;;4.03;;
16862;SDS011;52193;48.216;-1.698;2023-03-25T02:15:47;9.43;;;4.47;;
16862;SDS011;52193;48.216;-1.698;2023-03-25T02:18:29;13.30;;;5.22;;
16862;SDS011;52193;48.216;-1.698;2023-03-25T02:21:31;9.70;;;4.15;;
16862;SDS011;52193;48.216;-1.698;2023-03-25T02:27:36;10.52;;;4.70;;
16862;SDS011;52193;48.216;-1.698;2023-03-25T02:30:23;12.18;;;5.10;;
16862;SDS011;52193;48.216;-1.698;2023-03-25T02:33:27;8.17;;;4.13;;
16862;SDS011;52193;48.216;-1.698;2023-03-25T02:39:08;9.43;;;3.90;;
16862;SDS011;52193;48.216;-1.698;2023-03-25T02:41:40;8.93;;;4.30;;
16862;SDS011;52193;48.216;-1.698;2023-03-25T02:44:17;9.70;;;4.10;;
16862;SDS011;52193;48.216;-1.698;2023-03-25T02:46:50;8.02;;;4.03;;
16862;SDS011;52193;48.216;-1.698;2023-03-25T02:49:22;9.37;;;4.63;;
16862;SDS011;52193;48.216;-1.698;2023-03-25T02:51:53;7.90;;;3.85;;
16862;SDS011;52193;48.216;-1.698;2023-03-25T02:54:25;8.50;;;4.10;;
16862;SDS011;52193;48.216;-1.698;2023-03-25T02:56:57;9.23;;;4.22;;
16862;SDS011;52193;48.216;-1.698;2023-03-25T02:59:25;6.97;;;3.90;;
16862;SDS011;52193;48.216;-1.698;2023-03-25T03:01:57;7.93;;;4.18;;
16862;SDS011;52193;48.216;-1.698;2023-03-25T03:04:25;8.27;;;4.07;;
16862;SDS011;52193;48.216;-1.698;2023-03-25T03:06:52;10.15;;;4.38;;
16862;SDS011;52193;48.216;-1.698;2023-03-25T03:09:29;9.02;;;4.55;;
16862;SDS011;52193;48.216;-1.698;2023-03-25T03:12:08;7.57;;;3.97;;
16862;SDS011;52193;48.216;-1.698;2023-03-25T03:14:56;8.50;;;4.33;;
16862;SDS011;52193;48.216;-1.698;2023-03-25T03:17:33;15.05;;;5.90;;
16862;SDS011;52193;48.216;-1.698;2023-03-25T03:20:07;8.77;;;4.40;;
16862;SDS011;52193;48.216;-1.698;2023-03-25T03:22:42;10.23;;;4.70;;
16862;SDS011;52193;48.216;-1.698;2023-03-25T03:25:20;7.82;;;4.47;;
16862;SDS011;52193;48.216;-1.698;2023-03-25T03:27:54;9.65;;;4.50;;
16862;SDS011;52193;48.216;-1.698;2023-03-25T03:30:25;8.45;;;4.65;;
16862;SDS011;52193;48.216;-1.698;2023-03-25T03:32:58;8.68;;;4.60;;
16862;SDS011;52193;48.216;-1.698;2023-03-25T03:35:34;11.32;;;5.20;;
16862;SDS011;52193;48.216;-1.698;2023-03-25T03:38:05;10.35;;;5.13;;
16862;SDS011;52193;48.216;-1.698;2023-03-25T03:40:36;11.00;;;5.40;;
16862;SDS011;52193;48.216;-1.698;2023-03-25T03:43:06;9.57;;;5.20;;
16862;SDS011;52193;48.216;-1.698;2023-03-25T03:45:37;10.82;;;5.22;;
16862;SDS011;52193;48.216;-1.698;2023-03-25T03:48:07;10.05;;;5.10;;
16862;SDS011;52193;48.216;-1.698;2023-03-25T03:50:37;10.57;;;5.35;;
16862;SDS011;52193;48.216;-1.698;2023-03-25T03:53:08;13.82;;;5.20;;
16862;SDS011;52193;48.216;-1.698;2023-03-25T03:55:42;12.35;;;5.63;;
16862;SDS011;52193;48.216;-1.698;2023-03-25T03:58:13;13.30;;;5.93;;
16862;SDS011;52193;48.216;-1.698;2023-03-25T04:00:47;11.87;;;5.83;;
16862;SDS011;52193;48.216;-1.698;2023-03-25T04:03:18;13.13;;;6.28;;
16862;SDS011;52193;48.216;-1.698;2023-03-25T04:05:51;12.25;;;5.75;;
16862;SDS011;52193;48.216;-1.698;2023-03-25T04:08:24;11.60;;;5.87;;
16862;SDS011;52193;48.216;-1.698;2023-03-25T04:10:57;13.65;;;6.25;;
16862;SDS011;52193;48.216;-1.698;2023-03-25T04:13:30;11.75;;;5.82;;
16862;SDS011;52193;48.216;-1.698;2023-03-25T04:16:00;11.73;;;5.67;;
16862;SDS011;52193;48.216;-1.698;2023-03-25T04:18:27;14.85;;;6.45;;
16862;SDS011;52193;48.216;-1.698;2023-03-25T04:20:57;14.35;;;6.30;;
16862;SDS011;52193;48.216;-1.698;2023-03-25T04:23:25;10.82;;;5.40;;
16862;SDS011;52193;48.216;-1.698;2023-03-25T04:25:54;11.45;;;5.82;;
16862;SDS011;52193;48.216;-1.698;2023-03-25T04:28:22;10.57;;;5.60;;
16862;SDS011;52193;48.216;-1.698;2023-03-25T04:30:50;12.83;;;5.80;;
16862;SDS011;52193;48.216;-1.698;2023-03-25T04:33:19;10.75;;;5.80;;
16862;SDS011;52193;48.216;-1.698;2023-03-25T04:35:46;9.98;;;5.50;;
16862;SDS011;52193;48.216;-1.698;2023-03-25T04:38:14;11.80;;;5.15;;
16862;SDS011;52193;48.216;-1.698;2023-03-25T04:40:42;12.03;;;5.60;;
16862;SDS011;52193;48.216;-1.698;2023-03-25T04:43:10;10.88;;;5.40;;
16862;SDS011;52193;48.216;-1.698;2023-03-25T04:45:39;10.98;;;5.90;;
16862;SDS011;52193;48.216;-1.698;2023-03-25T04:48:14;12.07;;;5.45;;
16862;SDS011;52193;48.216;-1.698;2023-03-25T04:50:47;13.02;;;5.43;;
16862;SDS011;52193;48.216;-1.698;2023-03-25T04:53:15;11.82;;;5.90;;
16862;SDS011;52193;48.216;-1.698;2023-03-25T04:55:42;10.75;;;5.45;;
16862;SDS011;52193;48.216;-1.698;2023-03-25T04:58:12;11.93;;;5.90;;
16862;SDS011;52193;48.216;-1.698;2023-03-25T05:00:40;13.73;;;5.57;;
16862;SDS011;52193;48.216;-1.698;2023-03-25T05:03:09;12.68;;;5.93;;
16862;SDS011;52193;48.216;-1.698;2023-03-25T05:05:37;14.57;;;5.63;;
16862;SDS011;52193;48.216;-1.698;2023-03-25T05:08:04;11.30;;;5.50;;
16862;SDS011;52193;48.216;-1.698;2023-03-25T05:10:32;13.80;;;5.65;;
16862;SDS011;52193;48.216;-1.698;2023-03-25T05:13:01;10.63;;;5.30;;
16862;SDS011;52193;48.216;-1.698;2023-03-25T05:15:29;12.00;;;5.40;;
16862;SDS011;52193;48.216;-1.698;2023-03-25T05:18:00;11.68;;;5.47;;
16862;SDS011;52193;48.216;-1.698;2023-03-25T05:20:27;12.05;;;5.50;;
16862;SDS011;52193;48.216;-1.698;2023-03-25T05:22:54;8.80;;;4.90;;
16862;SDS011;52193;48.216;-1.698;2023-03-25T05:25:21;11.32;;;5.10;;
16862;SDS011;52193;48.216;-1.698;2023-03-25T05:27:48;10.40;;;5.15;;
16862;SDS011;52193;48.216;-1.698;2023-03-25T05:30:15;13.18;;;5.30;;
16862;SDS011;52193;48.216;-1.698;2023-03-25T05:32:43;13.27;;;5.60;;
16862;SDS011;52193;48.216;-1.698;2023-03-25T05:35:16;13.03;;;5.63;;
16862;SDS011;52193;48.216;-1.698;2023-03-25T05:37:44;13.40;;;5.50;;
16862;SDS011;52193;48.216;-1.698;2023-03-25T05:40:14;12.65;;;5.40;;
16862;SDS011;52193;48.216;-1.698;2023-03-25T05:42:41;12.52;;;5.30;;
16862;SDS011;52193;48.216;-1.698;2023-03-25T05:45:11;14.90;;;5.67;;
16862;SDS011;52193;48.216;-1.698;2023-03-25T05:47:38;11.75;;;5.22;;
16862;SDS011;52193;48.216;-1.698;2023-03-25T05:50:05;11.32;;;5.38;;
16862;SDS011;52193;48.216;-1.698;2023-03-25T05:52:35;13.90;;;5.65;;
16862;SDS011;52193;48.216;-1.698;2023-03-25T05:55:05;14.95;;;6.10;;
16862;SDS011;52193;48.216;-1.698;2023-03-25T05:57:35;12.55;;;5.80;;
16862;SDS011;52193;48.216;-1.698;2023-03-25T06:00:02;14.18;;;5.38;;
16862;SDS011;52193;48.216;-1.698;2023-03-25T06:02:33;10.43;;;5.07;;
16862;SDS011;52193;48.216;-1.698;2023-03-25T06:05:03;10.52;;;5.10;;
16862;SDS011;52193;48.216;-1.698;2023-03-25T06:07:31;11.03;;;5.40;;
16862;SDS011;52193;48.216;-1.698;2023-03-25T06:09:59;12.85;;;5.40;;
16862;SDS011;52193;48.216;-1.698;2023-03-25T06:12:27;10.77;;;5.25;;
16862;SDS011;52193;48.216;-1.698;2023-03-25T06:14:56;10.15;;;4.90;;
16862;SDS011;52193;48.216;-1.698;2023-03-25T06:17:23;13.30;;;5.72;;
16862;SDS011;52193;48.216;-1.698;2023-03-25T06:19:51;13.60;;;5.50;;
16862;SDS011;52193;48.216;-1.698;2023-03-25T06:22:18;11.95;;;5.30;;
16862;SDS011;52193;48.216;-1.698;2023-03-25T06:24:46;11.60;;;5.23;;
16862;SDS011;52193;48.216;-1.698;2023-03-25T06:27:15;12.52;;;5.40;;
16862;SDS011;52193;48.216;-1.698;2023-03-25T06:29:44;11.07;;;5.25;;
16862;SDS011;52193;48.216;-1.698;2023-03-25T06:32:12;12.93;;;5.35;;
16862;SDS011;52193;48.216;-1.698;2023-03-25T06:34:39;13.55;;;4.97;;
16862;SDS011;52193;48.216;-1.698;2023-03-25T06:37:07;9.32;;;4.38;;
16862;SDS011;52193;48.216;-1.698;2023-03-25T06:39:35;10.77;;;5.00;;
16862;SDS011;52193;48.216;-1.698;2023-03-25T06:42:03;10.73;;;4.60;;
16862;SDS011;52193;48.216;-1.698;2023-03-25T06:44:32;10.35;;;5.00;;
16862;SDS011;52193;48.216;-1.698;2023-03-25T06:46:59;11.73;;;5.30;;
16862;SDS011;52193;48.216;-1.698;2023-03-25T06:49:28;12.57;;;5.23;;
16862;SDS011;52193;48.216;-1.698;2023-03-25T06:51:55;8.75;;;4.50;;
16862;SDS011;52193;48.216;-1.698;2023-03-25T06:54:22;12.07;;;5.05;;
16862;SDS011;52193;48.216;-1.698;2023-03-25T06:56:49;9.50;;;4.40;;
16862;SDS011;52193;48.216;-1.698;2023-03-25T06:59:16;12.65;;;5.28;;
16862;SDS011;52193;48.216;-1.698;2023-03-25T07:01:45;11.60;;;4.82;;
16862;SDS011;52193;48.216;-1.698;2023-03-25T07:04:11;10.35;;;4.82;;
16862;SDS011;52193;48.216;-1.698;2023-03-25T07:06:38;11.93;;;4.93;;
16862;SDS011;52193;48.216;-1.698;2023-03-25T07:09:06;14.90;;;5.55;;
16862;SDS011;52193;48.216;-1.698;2023-03-25T07:11:33;9.57;;;4.63;;
16862;SDS011;52193;48.216;-1.698;2023-03-25T07:14:00;11.60;;;4.90;;
16862;SDS011;52193;48.216;-1.698;2023-03-25T07:16:27;14.85;;;5.22;;
16862;SDS011;52193;48.216;-1.698;2023-03-25T07:18:55;12.70;;;5.18;;
16862;SDS011;52193;48.216;-1.698;2023-03-25T07:21:23;12.95;;;5.20;;
16862;SDS011;52193;48.216;-1.698;2023-03-25T07:23:50;13.52;;;5.40;;
16862;SDS011;52193;48.216;-1.698;2023-03-25T07:26:18;14.45;;;5.55;;
16862;SDS011;52193;48.216;-1.698;2023-03-25T07:28:44;11.32;;;5.20;;
16862;SDS011;52193;48.216;-1.698;2023-03-25T07:31:12;13.80;;;5.50;;
16862;SDS011;52193;48.216;-1.698;2023-03-25T07:33:41;12.73;;;5.15;;
16862;SDS011;52193;48.216;-1.698;2023-03-25T07:36:10;9.38;;;4.40;;
16862;SDS011;52193;48.216;-1.698;2023-03-25T07:38:38;11.25;;;5.13;;
16862;SDS011;52193;48.216;-1.698;2023-03-25T07:41:06;13.38;;;5.32;;
16862;SDS011;52193;48.216;-1.698;2023-03-25T07:43:33;11.57;;;4.88;;
16862;SDS011;52193;48.216;-1.698;2023-03-25T07:46:00;11.77;;;4.80;;
16862;SDS011;52193;48.216;-1.698;2023-03-25T07:48:27;11.40;;;4.63;;
16862;SDS011;52193;48.216;-1.698;2023-03-25T07:50:54;8.20;;;4.40;;
16862;SDS011;52193;48.216;-1.698;2023-03-25T07:53:22;13.02;;;5.22;;
16862;SDS011;52193;48.216;-1.698;2023-03-25T07:55:49;10.23;;;4.37;;
16862;SDS011;52193;48.216;-1.698;2023-03-25T07:58:16;7.45;;;4.20;;
16862;SDS011;52193;48.216;-1.698;2023-03-25T08:00:43;15.00;;;5.38;;
16862;SDS011;52193;48.216;-1.698;2023-03-25T08:03:10;12.38;;;4.70;;
16862;SDS011;52193;48.216;-1.698;2023-03-25T08:05:42;14.37;;;5.30;;
16862;SDS011;52193;48.216;-1.698;2023-03-25T08:08:10;12.40;;;5.00;;
16862;SDS011;52193;48.216;-1.698;2023-03-25T08:10:38;13.60;;;5.10;;
16862;SDS011;52193;48.216;-1.698;2023-03-25T08:13:07;12.90;;;5.30;;
16862;SDS011;52193;48.216;-1.698;2023-03-25T08:15:34;12.05;;;5.22;;
16862;SDS011;52193;48.216;-1.698;2023-03-25T08:18:01;12.48;;;4.97;;
16862;SDS011;52193;48.216;-1.698;2023-03-25T08:20:30;12.63;;;5.15;;
16862;SDS011;52193;48.216;-1.698;2023-03-25T08:22:57;12.73;;;5.30;;
16862;SDS011;52193;48.216;-1.698;2023-03-25T08:25:24;14.63;;;5.50;;
16862;SDS011;52193;48.216;-1.698;2023-03-25T08:27:53;16.40;;;5.75;;
16862;SDS011;52193;48.216;-1.698;2023-03-25T08:30:20;15.00;;;5.72;;
16862;SDS011;52193;48.216;-1.698;2023-03-25T08:32:47;14.88;;;5.55;;
16862;SDS011;52193;48.216;-1.698;2023-03-25T08:35:18;17.80;;;6.53;;
16862;SDS011;52193;48.216;-1.698;2023-03-25T08:37:46;14.77;;;5.63;;
16862;SDS011;52193;48.216;-1.698;2023-03-25T08:40:13;14.38;;;5.80;;
16862;SDS011;52193;48.216;-1.698;2023-03-25T08:42:41;17.38;;;5.85;;
16862;SDS011;52193;48.216;-1.698;2023-03-25T08:45:10;16.33;;;5.83;;
16862;SDS011;52193;48.216;-1.698;2023-03-25T08:47:39;17.70;;;6.38;;
16862;SDS011;52193;48.216;-1.698;2023-03-25T08:50:06;13.15;;;5.55;;
16862;SDS011;52193;48.216;-1.698;2023-03-25T08:52:34;15.63;;;6.07;;
16862;SDS011;52193;48.216;-1.698;2023-03-25T08:55:01;16.65;;;6.60;;
16862;SDS011;52193;48.216;-1.698;2023-03-25T08:57:28;14.57;;;5.93;;
16862;SDS011;52193;48.216;-1.698;2023-03-25T08:59:55;17.07;;;6.60;;
16862;SDS011;52193;48.216;-1.698;2023-03-25T09:02:23;15.35;;;6.30;;
16862;SDS011;52193;48.216;-1.698;2023-03-25T09:04:51;16.30;;;6.90;;
16862;SDS011;52193;48.216;-1.698;2023-03-25T09:07:18;18.63;;;6.78;;
16862;SDS011;52193;48.216;-1.698;2023-03-25T09:09:47;18.50;;;6.80;;
16862;SDS011;52193;48.216;-1.698;2023-03-25T09:12:14;20.98;;;7.70;;
16862;SDS011;52193;48.216;-1.698;2023-03-25T09:14:41;16.58;;;6.93;;
16862;SDS011;52193;48.216;-1.698;2023-03-25T09:17:09;18.42;;;6.90;;
16862;SDS011;52193;48.216;-1.698;2023-03-25T09:19:37;18.08;;;6.60;;
16862;SDS011;52193;48.216;-1.698;2023-03-25T09:22:05;18.25;;;6.35;;
16862;SDS011;52193;48.216;-1.698;2023-03-25T09:24:32;20.65;;;7.13;;
16862;SDS011;52193;48.216;-1.698;2023-03-25T09:26:59;19.17;;;6.82;;
16862;SDS011;52193;48.216;-1.698;2023-03-25T09:29:27;13.00;;;5.70;;
16862;SDS011;52193;48.216;-1.698;2023-03-25T09:31:54;18.20;;;7.13;;
16862;SDS011;52193;48.216;-1.698;2023-03-25T09:34:23;19.55;;;7.20;;
16862;SDS011;52193;48.216;-1.698;2023-03-25T09:36:52;16.90;;;7.18;;
16862;SDS011;52193;48.216;-1.698;2023-03-25T09:39:19;16.10;;;7.00;;
16862;SDS011;52193;48.216;-1.698;2023-03-25T09:41:53;18.90;;;7.13;;
16862;SDS011;52193;48.216;-1.698;2023-03-25T09:44:27;19.13;;;7.05;;
16862;SDS011;52193;48.216;-1.698;2023-03-25T09:46:58;18.40;;;6.82;;
16862;SDS011;52193;48.216;-1.698;2023-03-25T09:49:30;15.10;;;6.28;;
16862;SDS011;52193;48.216;-1.698;2023-03-25T09:52:05;19.07;;;6.77;;
16862;SDS011;52193;48.216;-1.698;2023-03-25T09:54:40;18.00;;;6.90;;
16862;SDS011;52193;48.216;-1.698;2023-03-25T09:57:12;18.10;;;6.40;;
16862;SDS011;52193;48.216;-1.698;2023-03-25T09:59:44;17.08;;;6.28;;
16862;SDS011;52193;48.216;-1.698;2023-03-25T10:02:17;17.17;;;6.68;;
16862;SDS011;52193;48.216;-1.698;2023-03-25T10:05:01;14.27;;;5.90;;
16862;SDS011;52193;48.216;-1.698;2023-03-25T10:07:54;21.50;;;7.10;;
16862;SDS011;52193;48.216;-1.698;2023-03-25T10:10:31;19.27;;;6.68;;
16862;SDS011;52193;48.216;-1.698;2023-03-25T10:13:06;17.55;;;6.60;;
16862;SDS011;52193;48.216;-1.698;2023-03-25T10:15:38;17.52;;;6.40;;
16862;SDS011;52193;48.216;-1.698;2023-03-25T10:18:21;13.90;;;5.63;;
16862;SDS011;52193;48.216;-1.698;2023-03-25T10:21:01;17.98;;;6.60;;
16862;SDS011;52193;48.216;-1.698;2023-03-25T10:23:34;12.73;;;6.10;;
16862;SDS011;52193;48.216;-1.698;2023-03-25T10:26:08;14.68;;;5.70;;
16862;SDS011;52193;48.216;-1.698;2023-03-25T10:28:39;17.95;;;6.65;;
16862;SDS011;52193;48.216;-1.698;2023-03-25T10:31:10;17.00;;;5.85;;
16862;SDS011;52193;48.216;-1.698;2023-03-25T10:33:42;14.55;;;5.68;;
16862;SDS011;52193;48.216;-1.698;2023-03-25T10:36:15;14.48;;;5.55;;
16862;SDS011;52193;48.216;-1.698;2023-03-25T10:38:46;18.50;;;6.00;;
16862;SDS011;52193;48.216;-1.698;2023-03-25T10:41:21;14.70;;;5.50;;
16862;SDS011;52193;48.216;-1.698;2023-03-25T10:43:51;12.23;;;5.00;;
16862;SDS011;52193;48.216;-1.698;2023-03-25T10:46:23;13.68;;;5.63;;
16862;SDS011;52193;48.216;-1.698;2023-03-25T10:48:54;14.80;;;5.22;;
16862;SDS011;52193;48.216;-1.698;2023-03-25T10:51:22;14.45;;;5.07;;
16862;SDS011;52193;48.216;-1.698;2023-03-25T10:53:54;15.32;;;5.55;;
16862;SDS011;52193;48.216;-1.698;2023-03-25T10:56:23;14.60;;;5.65;;
16862;SDS011;52193;48.216;-1.698;2023-03-25T10:58:52;17.30;;;5.80;;
16862;SDS011;52193;48.216;-1.698;2023-03-25T11:01:21;14.15;;;5.32;;
16862;SDS011;52193;48.216;-1.698;2023-03-25T11:03:56;11.73;;;4.63;;
16862;SDS011;52193;48.216;-1.698;2023-03-25T11:06:26;14.20;;;5.13;;
16862;SDS011;52193;48.216;-1.698;2023-03-25T11:09:01;16.73;;;5.35;;
16862;SDS011;52193;48.216;-1.698;2023-03-25T11:11:38;17.77;;;5.63;;
16862;SDS011;52193;48.216;-1.698;2023-03-25T11:14:05;15.38;;;5.88;;
16862;SDS011;52193;48.216;-1.698;2023-03-25T11:16:33;15.10;;;5.43;;
16862;SDS011;52193;48.216;-1.698;2023-03-25T11:19:05;16.30;;;5.57;;
16862;SDS011;52193;48.216;-1.698;2023-03-25T11:21:32;17.77;;;5.40;;
16862;SDS011;52193;48.216;-1.698;2023-03-25T11:24:04;16.30;;;5.55;;
16862;SDS011;52193;48.216;-1.698;2023-03-25T11:26:35;18.08;;;6.03;;
16862;SDS011;52193;48.216;-1.698;2023-03-25T11:29:05;16.67;;;5.78;;
16862;SDS011;52193;48.216;-1.698;2023-03-25T11:31:35;13.75;;;5.10;;
16862;SDS011;52193;48.216;-1.698;2023-03-25T11:34:04;13.50;;;5.63;;
16862;SDS011;52193;48.216;-1.698;2023-03-25T11:36:32;16.90;;;5.60;;
16862;SDS011;52193;48.216;-1.698;2023-03-25T11:39:12;10.85;;;5.30;;
16862;SDS011;52193;48.216;-1.698;2023-03-25T11:41:42;14.55;;;5.82;;
16862;SDS011;52193;48.216;-1.698;2023-03-25T11:44:14;12.77;;;5.43;;
16862;SDS011;52193;48.216;-1.698;2023-03-25T11:46:47;15.33;;;6.60;;
16862;SDS011;52193;48.216;-1.698;2023-03-25T11:49:18;15.05;;;6.38;;
16862;SDS011;52193;48.216;-1.698;2023-03-25T11:51:47;16.40;;;5.57;;
16862;SDS011;52193;48.216;-1.698;2023-03-25T11:54:16;14.10;;;4.95;;
16862;SDS011;52193;48.216;-1.698;2023-03-25T11:56:44;11.43;;;4.97;;
16862;SDS011;52193;48.216;-1.698;2023-03-25T11:59:18;12.57;;;4.90;;
16862;SDS011;52193;48.216;-1.698;2023-03-25T12:01:49;14.68;;;5.30;;
16862;SDS011;52193;48.216;-1.698;2023-03-25T12:04:18;13.40;;;5.20;;
16862;SDS011;52193;48.216;-1.698;2023-03-25T12:06:53;12.15;;;4.80;;
16862;SDS011;52193;48.216;-1.698;2023-03-25T12:09:24;10.93;;;4.00;;
16862;SDS011;52193;48.216;-1.698;2023-03-25T12:11:54;11.48;;;4.85;;
16862;SDS011;52193;48.216;-1.698;2023-03-25T12:14:33;13.00;;;4.93;;
16862;SDS011;52193;48.216;-1.698;2023-03-25T12:17:09;12.80;;;4.80;;
16862;SDS011;52193;48.216;-1.698;2023-03-25T12:19:50;10.55;;;4.50;;
16862;SDS011;52193;48.216;-1.698;2023-03-25T12:22:27;17.98;;;5.03;;
16862;SDS011;52193;48.216;-1.698;2023-03-25T12:25:13;12.18;;;4.57;;
16862;SDS011;52193;48.216;-1.698;2023-03-25T12:27:50;8.85;;;4.07;;
16862;SDS011;52193;48.216;-1.698;2023-03-25T12:30:28;12.32;;;4.80;;
16862;SDS011;52193;48.216;-1.698;2023-03-25T12:33:04;9.10;;;4.00;;
16862;SDS011;52193;48.216;-1.698;2023-03-25T12:35:43;8.50;;;3.83;;
16862;SDS011;52193;48.216;-1.698;2023-03-25T12:38:21;12.30;;;4.75;;
16862;SDS011;52193;48.216;-1.698;2023-03-25T12:41:01;24.83;;;4.97;;
16862;SDS011;52193;48.216;-1.698;2023-03-25T12:43:45;10.48;;;4.43;;
16862;SDS011;52193;48.216;-1.698;2023-03-25T12:46:28;12.83;;;5.00;;
16862;SDS011;52193;48.216;-1.698;2023-03-25T12:49:14;14.45;;;5.28;;
16862;SDS011;52193;48.216;-1.698;2023-03-25T12:51:54;13.60;;;4.88;;
16862;SDS011;52193;48.216;-1.698;2023-03-25T12:54:33;15.52;;;5.78;;
16862;SDS011;52193;48.216;-1.698;2023-03-25T12:57:16;9.73;;;4.73;;
16862;SDS011;52193;48.216;-1.698;2023-03-25T12:59:59;15.35;;;4.97;;
16862;SDS011;52193;48.216;-1.698;2023-03-25T13:02:48;10.43;;;4.35;;
16862;SDS011;52193;48.216;-1.698;2023-03-25T13:05:43;12.45;;;5.07;;
16862;SDS011;52193;48.216;-1.698;2023-03-25T13:08:13;13.43;;;5.28;;
16862;SDS011;52193;48.216;-1.698;2023-03-25T13:10:44;12.82;;;5.00;;
16862;SDS011;52193;48.216;-1.698;2023-03-25T13:13:22;13.65;;;4.97;;
16862;SDS011;52193;48.216;-1.698;2023-03-25T13:15:53;13.55;;;5.28;;
16862;SDS011;52193;48.216;-1.698;2023-03-25T13:18:26;15.80;;;7.28;;
16862;SDS011;52193;48.216;-1.698;2023-03-25T13:20:57;16.15;;;5.80;;
16862;SDS011;52193;48.216;-1.698;2023-03-25T13:23:28;17.30;;;5.63;;
16862;SDS011;52193;48.216;-1.698;2023-03-25T13:25:59;13.20;;;5.03;;
16862;SDS011;52193;48.216;-1.698;2023-03-25T13:28:34;14.02;;;5.28;;
16862;SDS011;52193;48.216;-1.698;2023-03-25T13:31:03;10.52;;;4.10;;
16862;SDS011;52193;48.216;-1.698;2023-03-25T13:33:33;16.73;;;6.00;;
16862;SDS011;52193;48.216;-1.698;2023-03-25T13:36:07;13.70;;;5.05;;
16862;SDS011;52193;48.216;-1.698;2023-03-25T13:38:40;12.18;;;4.97;;
16862;SDS011;52193;48.216;-1.698;2023-03-25T13:41:13;13.60;;;5.13;;
16862;SDS011;52193;48.216;-1.698;2023-03-25T13:43:48;9.67;;;4.30;;
16862;SDS011;52193;48.216;-1.698;2023-03-25T13:46:22;10.73;;;4.50;;
16862;SDS011;52193;48.216;-1.698;2023-03-25T13:48:53;10.48;;;4.10;;
16862;SDS011;52193;48.216;-1.698;2023-03-25T13:51:23;10.50;;;4.38;;
16862;SDS011;52193;48.216;-1.698;2023-03-25T13:53:52;11.75;;;3.80;;
16862;SDS011;52193;48.216;-1.698;2023-03-25T14:02:33;10.43;;;3.90;;
16862;SDS011;52193;48.216;-1.698;2023-03-25T14:05:20;9.77;;;3.63;;
16862;SDS011;52193;48.216;-1.698;2023-03-25T14:11:20;8.02;;;3.33;;
16862;SDS011;52193;48.216;-1.698;2023-03-25T14:13:51;8.50;;;3.97;;
16862;SDS011;52193;48.216;-1.698;2023-03-25T14:16:21;6.88;;;3.25;;
16862;SDS011;52193;48.216;-1.698;2023-03-25T14:18:54;7.53;;;3.37;;
16862;SDS011;52193;48.216;-1.698;2023-03-25T14:21:29;8.90;;;3.13;;
16862;SDS011;52193;48.216;-1.698;2023-03-25T14:24:03;8.82;;;3.22;;
16862;SDS011;52193;48.216;-1.698;2023-03-25T14:26:35;9.63;;;3.53;;
16862;SDS011;52193;48.216;-1.698;2023-03-25T14:29:07;8.17;;;3.40;;
16862;SDS011;52193;48.216;-1.698;2023-03-25T14:31:57;7.97;;;3.35;;
16862;SDS011;52193;48.216;-1.698;2023-03-25T14:34:27;7.40;;;3.35;;
16862;SDS011;52193;48.216;-1.698;2023-03-25T14:39:53;7.53;;;3.42;;
16862;SDS011;52193;48.216;-1.698;2023-03-25T14:42:27;7.50;;;3.40;;
16862;SDS011;52193;48.216;-1.698;2023-03-25T14:48:17;8.30;;;3.57;;
16862;SDS011;52193;48.216;-1.698;2023-03-25T14:50:54;8.60;;;3.65;;
16862;SDS011;52193;48.216;-1.698;2023-03-25T14:53:39;9.40;;;3.73;;
16862;SDS011;52193;48.216;-1.698;2023-03-25T14:56:07;8.85;;;3.50;;
16862;SDS011;52193;48.216;-1.698;2023-03-25T14:58:43;7.17;;;3.20;;
16862;SDS011;52193;48.216;-1.698;2023-03-25T15:01:11;10.10;;;3.90;;
16862;SDS011;52193;48.216;-1.698;2023-03-25T15:03:42;7.03;;;3.20;;
16862;SDS011;52193;48.216;-1.698;2023-03-25T15:06:13;7.95;;;3.38;;
16862;SDS011;52193;48.216;-1.698;2023-03-25T15:08:48;7.53;;;3.40;;
16862;SDS011;52193;48.216;-1.698;2023-03-25T15:11:24;8.33;;;3.47;;